sensor_id;sensor_type;location;lat;lon;timestamp;pressure;altitude;pressure_sealevel;temperature;humidity
27805;BME280;15183;51.350;11.102;2023-08-07T00:01:31;99047.34;;;18.29;74.89
27805;BME280;15183;51.350;11.102;2023-08-07T00:03:58;99024.50;;;18.17;74.47
27805;BME280;15183;51.350;11.102;2023-08-07T00:06:24;99059.56;;;18.35;74.85
27805;BME280;15183;51.350;11.102;2023-08-07T00:08:51;99040.59;;;18.31;74.42
27805;BME280;15183;51.350;11.102;2023-08-07T00:11:18;99035.75;;;18.33;74.57
27805;BME280;15183;51.350;11.102;2023-08-07T00:13:44;99049.75;;;18.44;74.23
27805;BME280;15183;51.350;11.102;2023-08-07T00:16:12;99024.19;;;18.33;74.31
27805;BME280;15183;51.350;11.102;2023-08-07T00:18:39;99028.41;;;18.39;74.57
27805;BME280;15183;51.350;11.102;2023-08-07T00:21:06;99048.94;;;18.44;74.40
27805;BME280;15183;51.350;11.102;2023-08-07T00:23:32;99037.72;;;18.42;74.51
27805;BME280;15183;51.350;11.102;2023-08-07T00:25:59;99036.94;;;18.41;74.09
27805;BME280;15183;51.350;11.102;2023-08-07T00:28:26;99048.66;;;18.45;74.34
27805;BME280;15183;51.350;11.102;2023-08-07T00:30:54;99056.59;;;18.50;74.45
27805;BME280;15183;51.350;11.102;2023-08-07T00:33:21;99034.03;;;18.37;74.12
27805;BME280;15183;51.350;11.102;2023-08-07T00:35:47;99054.41;;;18.52;74.04
27805;BME280;15183;51.350;11.102;2023-08-07T00:38:14;99049.44;;;18.46;73.90
27805;BME280;15183;51.350;11.102;2023-08-07T00:40:41;99003.66;;;18.14;73.88
27805;BME280;15183;51.350;11.102;2023-08-07T00:43:08;99063.75;;;18.55;73.73
27805;BME280;15183;51.350;11.102;2023-08-07T00:45:42;99056.00;;;18.54;73.81
27805;BME280;15183;51.350;11.102;2023-08-07T00:48:11;99045.97;;;18.45;73.90
27805;BME280;15183;51.350;11.102;2023-08-07T00:50:39;99066.44;;;18.55;73.63
27805;BME280;15183;51.350;11.102;2023-08-07T00:53:06;99065.66;;;18.55;73.93
27805;BME280;15183;51.350;11.102;2023-08-07T00:55:33;99070.72;;;18.56;74.18
27805;BME280;15183;51.350;11.102;2023-08-07T00:58:00;99004.53;;;18.10;73.57
27805;BME280;15183;51.350;11.102;2023-08-07T01:00:30;99053.81;;;18.42;73.40
27805;BME280;15183;51.350;11.102;2023-08-07T01:02:57;99052.53;;;18.39;73.53
27805;BME280;15183;51.350;11.102;2023-08-07T01:05:25;99086.50;;;18.58;73.75
27805;BME280;15183;51.350;11.102;2023-08-07T01:07:53;99074.19;;;18.57;73.38
27805;BME280;15183;51.350;11.102;2023-08-07T01:13:28;99078.25;;;18.54;73.22
27805;BME280;15183;51.350;11.102;2023-08-07T01:16:01;99073.09;;;18.44;73.44
27805;BME280;15183;51.350;11.102;2023-08-07T01:18:30;99074.56;;;18.36;74.07
27805;BME280;15183;51.350;11.102;2023-08-07T01:20:57;99053.50;;;18.15;74.03
27805;BME280;15183;51.350;11.102;2023-08-07T01:23:25;99077.75;;;18.24;74.52
27805;BME280;15183;51.350;11.102;2023-08-07T01:25:52;99068.78;;;18.15;74.09
27805;BME280;15183;51.350;11.102;2023-08-07T01:28:33;99083.06;;;18.10;74.27
27805;BME280;15183;51.350;11.102;2023-08-07T01:31:07;99070.03;;;18.03;75.21
27805;BME280;15183;51.350;11.102;2023-08-07T01:34:08;99043.56;;;17.83;74.97
27805;BME280;15183;51.350;11.102;2023-08-07T01:36:35;99045.94;;;17.84;74.92
27805;BME280;15183;51.350;11.102;2023-08-07T01:39:03;99077.00;;;18.04;74.99
27805;BME280;15183;51.350;11.102;2023-08-07T01:41:33;99065.53;;;17.99;75.10
27805;BME280;15183;51.350;11.102;2023-08-07T01:44:02;99066.13;;;17.96;74.68
27805;BME280;15183;51.350;11.102;2023-08-07T01:46:30;99071.78;;;17.94;75.24
27805;BME280;15183;51.350;11.102;2023-08-07T01:48:56;99072.28;;;17.96;74.78
27805;BME280;15183;51.350;11.102;2023-08-07T01:51:23;99072.97;;;17.88;74.65
27805;BME280;15183;51.350;11.102;2023-08-07T01:53:50;99070.06;;;17.84;74.82
27805;BME280;15183;51.350;11.102;2023-08-07T01:56:17;99057.63;;;17.74;75.14
27805;BME280;15183;51.350;11.102;2023-08-07T01:58:43;99066.47;;;17.75;74.54
27805;BME280;15183;51.350;11.102;2023-08-07T02:01:09;99076.94;;;17.90;75.10
27805;BME280;15183;51.350;11.102;2023-08-07T02:03:36;99039.91;;;17.59;74.78
27805;BME280;15183;51.350;11.102;2023-08-07T02:06:03;99072.25;;;17.82;74.98
27805;BME280;15183;51.350;11.102;2023-08-07T02:08:30;99065.66;;;17.74;74.99
27805;BME280;15183;51.350;11.102;2023-08-07T02:10:56;99064.38;;;17.72;74.60
27805;BME280;15183;51.350;11.102;2023-08-07T02:13:23;99082.22;;;17.76;74.40
27805;BME280;15183;51.350;11.102;2023-08-07T02:15:49;99090.41;;;17.85;75.03
27805;BME280;15183;51.350;11.102;2023-08-07T02:18:16;99064.88;;;17.74;74.53
27805;BME280;15183;51.350;11.102;2023-08-07T02:20:43;99083.47;;;17.84;74.70
27805;BME280;15183;51.350;11.102;2023-08-07T02:23:09;99056.53;;;17.75;74.87
27805;BME280;15183;51.350;11.102;2023-08-07T02:25:36;99076.38;;;17.74;74.74
27805;BME280;15183;51.350;11.102;2023-08-07T02:28:02;99073.09;;;17.77;74.62
27805;BME280;15183;51.350;11.102;2023-08-07T02:30:30;99066.41;;;17.61;74.53
27805;BME280;15183;51.350;11.102;2023-08-07T02:32:57;99094.00;;;17.81;74.45
27805;BME280;15183;51.350;11.102;2023-08-07T02:35:25;99089.41;;;17.81;74.53
27805;BME280;15183;51.350;11.102;2023-08-07T02:37:51;99089.69;;;17.79;74.33
27805;BME280;15183;51.350;11.102;2023-08-07T02:40:18;99111.25;;;17.88;74.53
27805;BME280;15183;51.350;11.102;2023-08-07T02:42:45;99098.53;;;17.80;74.72
27805;BME280;15183;51.350;11.102;2023-08-07T02:45:11;99064.31;;;17.58;74.68
27805;BME280;15183;51.350;11.102;2023-08-07T02:47:38;99028.09;;;17.27;74.13
27805;BME280;15183;51.350;11.102;2023-08-07T02:50:05;99069.88;;;17.61;74.60
27805;BME280;15183;51.350;11.102;2023-08-07T02:52:31;99086.66;;;17.67;74.07
27805;BME280;15183;51.350;11.102;2023-08-07T02:54:57;99107.44;;;17.75;74.56
27805;BME280;15183;51.350;11.102;2023-08-07T02:57:24;99026.69;;;17.30;74.79
27805;BME280;15183;51.350;11.102;2023-08-07T02:59:51;99095.63;;;17.76;74.33
27805;BME280;15183;51.350;11.102;2023-08-07T03:02:17;99098.03;;;17.78;74.17
27805;BME280;15183;51.350;11.102;2023-08-07T03:04:44;99090.75;;;17.64;74.13
27805;BME280;15183;51.350;11.102;2023-08-07T03:07:10;99110.63;;;17.77;74.41
27805;BME280;15183;51.350;11.102;2023-08-07T03:09:37;99100.41;;;17.60;74.93
27805;BME280;15183;51.350;11.102;2023-08-07T03:12:04;99108.41;;;17.65;74.46
27805;BME280;15183;51.350;11.102;2023-08-07T03:14:31;99093.34;;;17.50;74.88
27805;BME280;15183;51.350;11.102;2023-08-07T03:16:57;99115.28;;;17.53;74.88
27805;BME280;15183;51.350;11.102;2023-08-07T03:19:24;99121.72;;;17.52;75.07
27805;BME280;15183;51.350;11.102;2023-08-07T03:21:51;99066.28;;;17.14;75.19
27805;BME280;15183;51.350;11.102;2023-08-07T03:24:18;99084.66;;;17.20;74.90
27805;BME280;15183;51.350;11.102;2023-08-07T03:26:48;99108.25;;;17.38;74.94
27805;BME280;15183;51.350;11.102;2023-08-07T03:29:15;99050.94;;;17.00;75.13
27805;BME280;15183;51.350;11.102;2023-08-07T03:31:42;99115.13;;;17.44;75.07
27805;BME280;15183;51.350;11.102;2023-08-07T03:34:09;99050.63;;;17.02;75.11
27805;BME280;15183;51.350;11.102;2023-08-07T03:36:35;99121.81;;;17.46;75.08
27805;BME280;15183;51.350;11.102;2023-08-07T03:39:02;99133.22;;;17.52;75.19
27805;BME280;15183;51.350;11.102;2023-08-07T03:41:29;99104.41;;;17.25;75.00
27805;BME280;15183;51.350;11.102;2023-08-07T03:43:56;99148.78;;;17.50;74.56
27805;BME280;15183;51.350;11.102;2023-08-07T03:46:22;99124.59;;;17.36;75.15
27805;BME280;15183;51.350;11.102;2023-08-07T03:48:48;99125.50;;;17.31;75.15
27805;BME280;15183;51.350;11.102;2023-08-07T03:51:15;99147.53;;;17.42;75.00
27805;BME280;15183;51.350;11.102;2023-08-07T03:53:43;99133.72;;;17.35;75.04
27805;BME280;15183;51.350;11.102;2023-08-07T03:56:10;99134.03;;;17.33;75.08
27805;BME280;15183;51.350;11.102;2023-08-07T03:58:36;99161.47;;;17.44;75.08
27805;BME280;15183;51.350;11.102;2023-08-07T04:01:03;99156.66;;;17.41;74.92
27805;BME280;15183;51.350;11.102;2023-08-07T04:03:29;99116.56;;;17.17;75.16
27805;BME280;15183;51.350;11.102;2023-08-07T04:05:56;99157.47;;;17.42;75.07
27805;BME280;15183;51.350;11.102;2023-08-07T04:08:23;99138.94;;;17.26;74.94
27805;BME280;15183;51.350;11.102;2023-08-07T04:11:07;99157.53;;;17.36;74.96
27805;BME280;15183;51.350;11.102;2023-08-07T04:13:33;99121.97;;;17.12;74.99
27805;BME280;15183;51.350;11.102;2023-08-07T04:16:01;99089.84;;;16.87;75.12
27805;BME280;15183;51.350;11.102;2023-08-07T04:18:30;99108.50;;;16.98;74.85
27805;BME280;15183;51.350;11.102;2023-08-07T04:20:58;99140.44;;;17.13;75.04
27805;BME280;15183;51.350;11.102;2023-08-07T04:23:27;99165.28;;;17.38;74.92
27805;BME280;15183;51.350;11.102;2023-08-07T04:25:54;99078.13;;;16.83;74.82
27805;BME280;15183;51.350;11.102;2023-08-07T04:28:21;99166.03;;;17.44;74.91
27805;BME280;15183;51.350;11.102;2023-08-07T04:30:51;99121.69;;;17.13;74.89
27805;BME280;15183;51.350;11.102;2023-08-07T04:33:19;99174.13;;;17.39;75.15
27805;BME280;15183;51.350;11.102;2023-08-07T04:35:47;99120.50;;;17.00;74.81
27805;BME280;15183;51.350;11.102;2023-08-07T04:38:15;99193.53;;;17.49;74.57
27805;BME280;15183;51.350;11.102;2023-08-07T04:40:48;99138.19;;;17.20;74.65
27805;BME280;15183;51.350;11.102;2023-08-07T04:43:17;99191.00;;;17.58;74.95
27805;BME280;15183;51.350;11.102;2023-08-07T04:45:43;99103.06;;;17.03;74.86
27805;BME280;15183;51.350;11.102;2023-08-07T04:48:11;99185.94;;;17.57;74.73
27805;BME280;15183;51.350;11.102;2023-08-07T04:50:38;99164.34;;;17.48;74.37
27805;BME280;15183;51.350;11.102;2023-08-07T04:53:05;99184.03;;;17.57;74.87
27805;BME280;15183;51.350;11.102;2023-08-07T04:55:32;99174.22;;;17.53;74.08
27805;BME280;15183;51.350;11.102;2023-08-07T04:58:00;99119.47;;;17.20;74.09
27805;BME280;15183;51.350;11.102;2023-08-07T05:00:27;99199.13;;;17.72;74.22
27805;BME280;15183;51.350;11.102;2023-08-07T05:02:57;99204.97;;;17.74;74.26
27805;BME280;15183;51.350;11.102;2023-08-07T05:05:23;99168.03;;;17.52;73.92
27805;BME280;15183;51.350;11.102;2023-08-07T05:07:50;99209.72;;;17.83;73.80
27805;BME280;15183;51.350;11.102;2023-08-07T05:10:18;99193.25;;;17.70;74.37
27805;BME280;15183;51.350;11.102;2023-08-07T05:12:45;99207.47;;;17.90;73.99
27805;BME280;15183;51.350;11.102;2023-08-07T05:15:13;99210.84;;;17.96;74.27
27805;BME280;15183;51.350;11.102;2023-08-07T05:17:40;99174.88;;;17.63;74.00
27805;BME280;15183;51.350;11.102;2023-08-07T05:20:07;99212.44;;;18.02;73.46
27805;BME280;15183;51.350;11.102;2023-08-07T05:22:35;99203.91;;;17.94;73.86
27805;BME280;15183;51.350;11.102;2023-08-07T05:25:02;99224.66;;;18.08;73.17
27805;BME280;15183;51.350;11.102;2023-08-07T05:27:28;99222.34;;;18.01;73.38
27805;BME280;15183;51.350;11.102;2023-08-07T05:29:56;99203.53;;;17.82;73.42
27805;BME280;15183;51.350;11.102;2023-08-07T05:32:22;99210.22;;;17.85;73.87
27805;BME280;15183;51.350;11.102;2023-08-07T05:34:49;99216.59;;;17.89;73.79
27805;BME280;15183;51.350;11.102;2023-08-07T05:37:17;99226.91;;;18.01;73.91
27805;BME280;15183;51.350;11.102;2023-08-07T05:39:43;99233.56;;;18.03;74.04
27805;BME280;15183;51.350;11.102;2023-08-07T05:42:10;99217.03;;;17.96;73.72
27805;BME280;15183;51.350;11.102;2023-08-07T05:44:37;99215.63;;;17.99;73.63
27805;BME280;15183;51.350;11.102;2023-08-07T05:47:04;99210.53;;;18.02;73.75
27805;BME280;15183;51.350;11.102;2023-08-07T05:49:31;99214.28;;;18.01;73.27
27805;BME280;15183;51.350;11.102;2023-08-07T05:51:58;99222.69;;;18.14;73.18
27805;BME280;15183;51.350;11.102;2023-08-07T05:54:24;99166.34;;;17.81;72.92
27805;BME280;15183;51.350;11.102;2023-08-07T05:56:51;99210.72;;;18.25;72.88
27805;BME280;15183;51.350;11.102;2023-08-07T05:59:18;99226.06;;;18.39;72.41
27805;BME280;15183;51.350;11.102;2023-08-07T06:01:45;99231.34;;;18.44;72.84
27805;BME280;15183;51.350;11.102;2023-08-07T06:04:11;99222.44;;;18.48;72.46
27805;BME280;15183;51.350;11.102;2023-08-07T06:06:37;99227.78;;;18.48;72.42
27805;BME280;15183;51.350;11.102;2023-08-07T06:09:05;99244.44;;;18.64;72.39
27805;BME280;15183;51.350;11.102;2023-08-07T06:11:32;99244.94;;;18.66;72.17
27805;BME280;15183;51.350;11.102;2023-08-07T06:13:59;99233.97;;;18.63;71.67
27805;BME280;15183;51.350;11.102;2023-08-07T06:16:26;99220.03;;;18.47;71.55
27805;BME280;15183;51.350;11.102;2023-08-07T06:18:54;99242.34;;;18.61;71.93
27805;BME280;15183;51.350;11.102;2023-08-07T06:21:20;99242.50;;;18.51;71.91
27805;BME280;15183;51.350;11.102;2023-08-07T06:23:47;99242.72;;;18.55;72.27
27805;BME280;15183;51.350;11.102;2023-08-07T06:26:13;99238.94;;;18.56;72.04
27805;BME280;15183;51.350;11.102;2023-08-07T06:28:40;99257.75;;;18.70;72.02
27805;BME280;15183;51.350;11.102;2023-08-07T06:31:08;99228.22;;;18.56;71.89
27805;BME280;15183;51.350;11.102;2023-08-07T06:33:35;99241.06;;;18.73;71.42
27805;BME280;15183;51.350;11.102;2023-08-07T06:36:03;99255.13;;;18.84;71.27
27805;BME280;15183;51.350;11.102;2023-08-07T06:38:30;99247.56;;;18.86;70.80
27805;BME280;15183;51.350;11.102;2023-08-07T06:40:57;99275.06;;;19.11;71.08
27805;BME280;15183;51.350;11.102;2023-08-07T06:43:24;99271.00;;;19.27;71.05
27805;BME280;15183;51.350;11.102;2023-08-07T06:45:55;99259.97;;;19.43;70.47
27805;BME280;15183;51.350;11.102;2023-08-07T06:48:22;99252.00;;;19.51;70.44
27805;BME280;15183;51.350;11.102;2023-08-07T06:50:50;99270.97;;;19.69;69.85
27805;BME280;15183;51.350;11.102;2023-08-07T06:53:16;99249.59;;;19.64;69.68
27805;BME280;15183;51.350;11.102;2023-08-07T06:55:44;99263.81;;;19.78;69.69
27805;BME280;15183;51.350;11.102;2023-08-07T06:58:11;99253.66;;;19.75;69.64
27805;BME280;15183;51.350;11.102;2023-08-07T07:00:37;99277.84;;;19.89;69.55
27805;BME280;15183;51.350;11.102;2023-08-07T07:03:04;99273.78;;;19.92;69.28
27805;BME280;15183;51.350;11.102;2023-08-07T07:05:31;99246.72;;;19.74;68.86
27805;BME280;15183;51.350;11.102;2023-08-07T07:07:58;99278.31;;;20.05;68.90
27805;BME280;15183;51.350;11.102;2023-08-07T07:10:25;99271.66;;;20.03;69.07
27805;BME280;15183;51.350;11.102;2023-08-07T07:12:52;99288.13;;;20.24;68.38
27805;BME280;15183;51.350;11.102;2023-08-07T07:15:19;99258.38;;;20.06;68.22
27805;BME280;15183;51.350;11.102;2023-08-07T07:17:45;99299.94;;;20.37;68.28
27805;BME280;15183;51.350;11.102;2023-08-07T07:20:12;99226.47;;;19.91;68.28
27805;BME280;15183;51.350;11.102;2023-08-07T07:22:39;99231.81;;;20.05;67.63
27805;BME280;15183;51.350;11.102;2023-08-07T07:25:08;99283.50;;;20.38;67.44
27805;BME280;15183;51.350;11.102;2023-08-07T07:27:35;99284.72;;;20.32;67.34
27805;BME280;15183;51.350;11.102;2023-08-07T07:30:01;99310.28;;;20.44;67.51
27805;BME280;15183;51.350;11.102;2023-08-07T07:32:28;99315.78;;;20.38;67.35
27805;BME280;15183;51.350;11.102;2023-08-07T07:34:54;99262.38;;;20.09;67.78
27805;BME280;15183;51.350;11.102;2023-08-07T07:37:22;99322.22;;;20.51;67.27
27805;BME280;15183;51.350;11.102;2023-08-07T07:39:48;99321.81;;;20.58;67.45
27805;BME280;15183;51.350;11.102;2023-08-07T07:42:15;99308.69;;;20.65;67.03
27805;BME280;15183;51.350;11.102;2023-08-07T07:44:41;99324.72;;;20.71;66.65
27805;BME280;15183;51.350;11.102;2023-08-07T07:47:08;99318.25;;;20.72;66.76
27805;BME280;15183;51.350;11.102;2023-08-07T07:49:35;99322.03;;;20.71;66.28
27805;BME280;15183;51.350;11.102;2023-08-07T07:52:02;99303.13;;;20.62;66.71
27805;BME280;15183;51.350;11.102;2023-08-07T07:54:29;99260.50;;;20.32;66.19
27805;BME280;15183;51.350;11.102;2023-08-07T07:56:55;99326.72;;;20.79;66.44
27805;BME280;15183;51.350;11.102;2023-08-07T07:59:22;99332.22;;;20.96;66.41
27805;BME280;15183;51.350;11.102;2023-08-07T08:01:48;99323.19;;;21.01;65.41
27805;BME280;15183;51.350;11.102;2023-08-07T08:04:15;99331.47;;;21.05;65.54
27805;BME280;15183;51.350;11.102;2023-08-07T08:06:42;99328.59;;;21.01;65.69
27805;BME280;15183;51.350;11.102;2023-08-07T08:09:09;99315.09;;;20.92;65.44
27805;BME280;15183;51.350;11.102;2023-08-07T08:11:36;99329.19;;;20.98;65.48
27805;BME280;15183;51.350;11.102;2023-08-07T08:14:03;99331.13;;;20.98;64.92
27805;BME280;15183;51.350;11.102;2023-08-07T08:16:29;99284.97;;;20.67;64.82
27805;BME280;15183;51.350;11.102;2023-08-07T08:18:56;99332.00;;;21.16;64.83
27805;BME280;15183;51.350;11.102;2023-08-07T08:21:22;99339.03;;;21.25;64.49
27805;BME280;15183;51.350;11.102;2023-08-07T08:23:49;99338.63;;;21.41;64.85
27805;BME280;15183;51.350;11.102;2023-08-07T08:26:16;99336.25;;;21.48;64.35
27805;BME280;15183;51.350;11.102;2023-08-07T08:28:42;99356.69;;;21.72;64.19
27805;BME280;15183;51.350;11.102;2023-08-07T08:31:08;99356.25;;;21.79;63.92
27805;BME280;15183;51.350;11.102;2023-08-07T08:33:36;99336.84;;;21.77;63.76
27805;BME280;15183;51.350;11.102;2023-08-07T08:36:03;99369.91;;;21.91;63.64
27805;BME280;15183;51.350;11.102;2023-08-07T08:38:30;99361.69;;;22.05;63.13
27805;BME280;15183;51.350;11.102;2023-08-07T08:41:02;99330.88;;;21.89;62.80
27805;BME280;15183;51.350;11.102;2023-08-07T08:43:34;99349.47;;;21.99;62.43
27805;BME280;15183;51.350;11.102;2023-08-07T08:46:05;99370.09;;;22.04;62.85
27805;BME280;15183;51.350;11.102;2023-08-07T08:48:35;99365.94;;;21.89;62.98
27805;BME280;15183;51.350;11.102;2023-08-07T08:51:06;99315.69;;;21.61;62.60
27805;BME280;15183;51.350;11.102;2023-08-07T08:53:34;99356.72;;;21.81;63.07
27805;BME280;15183;51.350;11.102;2023-08-07T08:56:01;99365.94;;;21.89;62.71
27805;BME280;15183;51.350;11.102;2023-08-07T08:58:28;99376.91;;;21.92;62.55
27805;BME280;15183;51.350;11.102;2023-08-07T09:00:55;99347.03;;;21.80;62.65
27805;BME280;15183;51.350;11.102;2023-08-07T09:03:23;99389.31;;;22.11;62.31
27805;BME280;15183;51.350;11.102;2023-08-07T09:05:50;99318.47;;;21.70;62.27
27805;BME280;15183;51.350;11.102;2023-08-07T09:08:19;99367.56;;;22.07;62.48
27805;BME280;15183;51.350;11.102;2023-08-07T09:10:46;99360.13;;;22.04;62.24
27805;BME280;15183;51.350;11.102;2023-08-07T09:13:15;99379.47;;;22.15;61.61
27805;BME280;15183;51.350;11.102;2023-08-07T09:15:45;99372.50;;;22.23;61.59
27805;BME280;15183;51.350;11.102;2023-08-07T09:18:17;99310.25;;;21.84;61.54
27805;BME280;15183;51.350;11.102;2023-08-07T09:20:46;99385.56;;;22.38;61.73
27805;BME280;15183;51.350;11.102;2023-08-07T09:23:12;99317.09;;;21.99;61.22
27805;BME280;15183;51.350;11.102;2023-08-07T09:25:41;99387.63;;;22.41;61.03
27805;BME280;15183;51.350;11.102;2023-08-07T09:28:09;99387.16;;;22.39;60.63
27805;BME280;15183;51.350;11.102;2023-08-07T09:30:39;99362.19;;;22.25;60.78
27805;BME280;15183;51.350;11.102;2023-08-07T09:33:08;99381.41;;;22.41;61.02
27805;BME280;15183;51.350;11.102;2023-08-07T09:35:34;99377.47;;;22.47;60.83
27805;BME280;15183;51.350;11.102;2023-08-07T09:38:02;99348.38;;;22.44;61.11
27805;BME280;15183;51.350;11.102;2023-08-07T09:40:31;99385.09;;;22.98;60.59
27805;BME280;15183;51.350;11.102;2023-08-07T09:43:00;99388.75;;;23.02;60.52
27805;BME280;15183;51.350;11.102;2023-08-07T09:45:28;99406.38;;;23.17;59.40
27805;BME280;15183;51.350;11.102;2023-08-07T09:48:04;99403.84;;;23.12;59.72
27805;BME280;15183;51.350;11.102;2023-08-07T09:50:32;99398.75;;;23.02;59.81
27805;BME280;15183;51.350;11.102;2023-08-07T09:52:59;99404.44;;;23.09;59.93
27805;BME280;15183;51.350;11.102;2023-08-07T09:55:26;99386.66;;;23.08;59.34
27805;BME280;15183;51.350;11.102;2023-08-07T09:57:53;99381.88;;;23.05;58.35
27805;BME280;15183;51.350;11.102;2023-08-07T10:00:20;99401.44;;;23.28;58.35
27805;BME280;15183;51.350;11.102;2023-08-07T10:02:49;99404.75;;;23.34;58.58
27805;BME280;15183;51.350;11.102;2023-08-07T10:05:17;99392.34;;;23.33;57.97
27805;BME280;15183;51.350;11.102;2023-08-07T10:07:43;99419.19;;;23.47;58.29
27805;BME280;15183;51.350;11.102;2023-08-07T10:10:10;99361.53;;;23.16;57.65
27805;BME280;15183;51.350;11.102;2023-08-07T10:12:39;99410.59;;;23.53;57.49
27805;BME280;15183;51.350;11.102;2023-08-07T10:15:07;99406.31;;;23.52;57.36
27805;BME280;15183;51.350;11.102;2023-08-07T10:17:34;99413.13;;;23.59;57.61
27805;BME280;15183;51.350;11.102;2023-08-07T10:20:01;99419.44;;;23.72;57.09
27805;BME280;15183;51.350;11.102;2023-08-07T10:22:30;99387.78;;;23.63;56.89
27805;BME280;15183;51.350;11.102;2023-08-07T10:25:00;99419.38;;;23.80;56.50
27805;BME280;15183;51.350;11.102;2023-08-07T10:27:34;99413.31;;;23.83;56.37
27805;BME280;15183;51.350;11.102;2023-08-07T10:30:08;99414.28;;;23.88;56.59
27805;BME280;15183;51.350;11.102;2023-08-07T10:32:36;99393.75;;;23.87;55.75
27805;BME280;15183;51.350;11.102;2023-08-07T10:35:04;99423.59;;;24.08;56.36
27805;BME280;15183;51.350;11.102;2023-08-07T10:37:44;99401.28;;;24.11;55.79
27805;BME280;15183;51.350;11.102;2023-08-07T10:40:12;99407.22;;;24.04;55.63
27805;BME280;15183;51.350;11.102;2023-08-07T10:43:12;99433.63;;;24.37;55.85
27805;BME280;15183;51.350;11.102;2023-08-07T10:45:39;99422.38;;;24.48;55.12
27805;BME280;15183;51.350;11.102;2023-08-07T10:48:12;99408.38;;;24.46;54.50
27805;BME280;15183;51.350;11.102;2023-08-07T10:56:07;99416.84;;;24.65;54.29
27805;BME280;15183;51.350;11.102;2023-08-07T10:58:38;99429.38;;;24.70;56.06
27805;BME280;15183;51.350;11.102;2023-08-07T11:04:14;99421.78;;;25.06;54.17
27805;BME280;15183;51.350;11.102;2023-08-07T11:06:43;99423.00;;;24.96;53.08
27805;BME280;15183;51.350;11.102;2023-08-07T11:09:12;99401.44;;;24.78;53.25
27805;BME280;15183;51.350;11.102;2023-08-07T11:14:16;99399.38;;;24.33;53.32
27805;BME280;15183;51.350;11.102;2023-08-07T11:16:45;99420.28;;;24.32;53.56
27805;BME280;15183;51.350;11.102;2023-08-07T11:19:17;99418.13;;;24.17;53.58
27805;BME280;15183;51.350;11.102;2023-08-07T11:21:45;99424.28;;;23.96;52.58
27805;BME280;15183;51.350;11.102;2023-08-07T11:24:16;99418.63;;;23.71;53.19
27805;BME280;15183;51.350;11.102;2023-08-07T11:26:46;99436.16;;;23.65;53.29
27805;BME280;15183;51.350;11.102;2023-08-07T11:29:18;99355.50;;;23.10;53.30
27805;BME280;15183;51.350;11.102;2023-08-07T11:31:45;99403.81;;;23.38;53.41
27805;BME280;15183;51.350;11.102;2023-08-07T11:34:12;99437.56;;;23.71;53.30
27805;BME280;15183;51.350;11.102;2023-08-07T11:36:43;99393.06;;;23.60;53.02
27805;BME280;15183;51.350;11.102;2023-08-07T11:39:11;99442.94;;;23.89;53.15
27805;BME280;15183;51.350;11.102;2023-08-07T11:41:37;99414.81;;;23.72;53.06
27805;BME280;15183;51.350;11.102;2023-08-07T11:44:04;99428.69;;;23.70;52.90
27805;BME280;15183;51.350;11.102;2023-08-07T11:46:30;99436.75;;;23.79;52.73
27805;BME280;15183;51.350;11.102;2023-08-07T11:48:57;99445.66;;;23.80;52.61
27805;BME280;15183;51.350;11.102;2023-08-07T11:51:24;99448.84;;;23.82;52.86
27805;BME280;15183;51.350;11.102;2023-08-07T11:53:50;99438.47;;;23.84;52.42
27805;BME280;15183;51.350;11.102;2023-08-07T11:56:22;99418.63;;;23.71;52.92
27805;BME280;15183;51.350;11.102;2023-08-07T11:58:51;99425.78;;;23.76;52.63
27805;BME280;15183;51.350;11.102;2023-08-07T12:01:25;99425.81;;;23.67;52.94
27805;BME280;15183;51.350;11.102;2023-08-07T12:06:35;99451.00;;;23.59;54.39
27805;BME280;15183;51.350;11.102;2023-08-07T12:09:02;99454.06;;;23.13;54.85
27805;BME280;15183;51.350;11.102;2023-08-07T12:11:29;99454.38;;;22.50;56.62
27805;BME280;15183;51.350;11.102;2023-08-07T12:13:59;99483.72;;;22.02;57.98
27805;BME280;15183;51.350;11.102;2023-08-07T12:16:26;99482.28;;;21.64;59.66
27805;BME280;15183;51.350;11.102;2023-08-07T12:18:53;99473.03;;;21.34;60.51
27805;BME280;15183;51.350;11.102;2023-08-07T12:21:22;99489.44;;;21.23;61.76
27805;BME280;15183;51.350;11.102;2023-08-07T12:23:55;99471.66;;;21.00;62.79
27805;BME280;15183;51.350;11.102;2023-08-07T12:26:22;99505.25;;;21.02;63.11
27805;BME280;15183;51.350;11.102;2023-08-07T12:28:52;99445.41;;;20.54;62.77
27805;BME280;15183;51.350;11.102;2023-08-07T12:31:20;99468.75;;;20.59;63.69
27805;BME280;15183;51.350;11.102;2023-08-07T12:33:47;99498.13;;;20.84;63.46
27805;BME280;15183;51.350;11.102;2023-08-07T12:36:13;99502.22;;;20.81;63.56
27805;BME280;15183;51.350;11.102;2023-08-07T12:38:41;99481.81;;;20.66;63.53
27805;BME280;15183;51.350;11.102;2023-08-07T12:41:08;99485.06;;;20.63;63.28
27805;BME280;15183;51.350;11.102;2023-08-07T12:43:34;99486.97;;;20.62;63.23
27805;BME280;15183;51.350;11.102;2023-08-07T12:46:01;99495.81;;;20.77;62.89
27805;BME280;15183;51.350;11.102;2023-08-07T12:48:28;99479.50;;;20.73;63.40
27805;BME280;15183;51.350;11.102;2023-08-07T12:50:55;99466.91;;;20.82;63.35
27805;BME280;15183;51.350;11.102;2023-08-07T12:53:21;99443.38;;;20.74;62.88
27805;BME280;15183;51.350;11.102;2023-08-07T12:55:48;99490.03;;;21.20;62.55
27805;BME280;15183;51.350;11.102;2023-08-07T12:58:14;99488.84;;;21.27;62.40
27805;BME280;15183;51.350;11.102;2023-08-07T13:00:41;99497.28;;;21.34;62.43
27805;BME280;15183;51.350;11.102;2023-08-07T13:03:08;99479.06;;;21.39;62.51
27805;BME280;15183;51.350;11.102;2023-08-07T13:05:34;99493.66;;;21.61;62.19
27805;BME280;15183;51.350;11.102;2023-08-07T13:08:01;99485.19;;;21.77;62.22
27805;BME280;15183;51.350;11.102;2023-08-07T13:10:28;99478.28;;;21.93;61.71